Home > Products > Valid Products > TAF

000
FTUS43 KFSD 032340
TAFSUX
TAF
KSUX 032340Z 0400/0424 34016G24KT P6SM SCT200
     FM040300 32010KT P6SM SCT200
     FM040500 31006KT P6SM SCT040 BKN150
     FM041600 33013KT P6SM SCT035
     FM041900 34017G25KT P6SM SCT025 BKN035
     FM042100 34016G23KT P6SM SCT030=



000
FTUS43 KFSD 032340
TAFHON
TAF
KHON 032340Z 0400/0424 30012KT P6SM SCT150
     FM040500 29007KT P6SM SCT040 BKN150
     FM041300 33012KT P6SM BKN035
     FM041600 33017G24KT P6SM SCT025 BKN035=



000
FTUS43 KFSD 032340
TAFFSD
TAF
KFSD 032340Z 0400/0424 33016G23KT P6SM SCT025 BKN180
     FM040200 32010KT P6SM SCT035 BKN180
     FM040700 30006KT P6SM SCT040 BKN200
     FM041600 34014KT P6SM BKN035
     FM041900 33015G23KT P6SM SCT035=



000
FTUS43 KFSD 032340
TAFSUX
TAF
KSUX 032340Z 0400/0424 34016G24KT P6SM SCT200
     FM040300 32010KT P6SM SCT200
     FM040500 31006KT P6SM SCT040 BKN150
     FM041600 33013KT P6SM SCT035
     FM041900 34017G25KT P6SM SCT025 BKN035
     FM042100 34016G23KT P6SM SCT030=



000
FTUS43 KFSD 032340
TAFSUX
TAF
KSUX 032340Z 0400/0424 34016G24KT P6SM SCT200
     FM040300 32010KT P6SM SCT200
     FM040500 31006KT P6SM SCT040 BKN150
     FM041600 33013KT P6SM SCT035
     FM041900 34017G25KT P6SM SCT025 BKN035
     FM042100 34016G23KT P6SM SCT030=



000
FTUS43 KFSD 032340
TAFHON
TAF
KHON 032340Z 0400/0424 30012KT P6SM SCT150
     FM040500 29007KT P6SM SCT040 BKN150
     FM041300 33012KT P6SM BKN035
     FM041600 33017G24KT P6SM SCT025 BKN035=



000
FTUS43 KFSD 032340
TAFSUX
TAF
KSUX 032340Z 0400/0424 34016G24KT P6SM SCT200
     FM040300 32010KT P6SM SCT200
     FM040500 31006KT P6SM SCT040 BKN150
     FM041600 33013KT P6SM SCT035
     FM041900 34017G25KT P6SM SCT025 BKN035
     FM042100 34016G23KT P6SM SCT030=



000
FTUS43 KFSD 032340
TAFFSD
TAF
KFSD 032340Z 0400/0424 33016G23KT P6SM SCT025 BKN180
     FM040200 32010KT P6SM SCT035 BKN180
     FM040700 30006KT P6SM SCT040 BKN200
     FM041600 34014KT P6SM BKN035
     FM041900 33015G23KT P6SM SCT035=



000
FTUS43 KFSD 032203 AAA
TAFSUX
TAF AMD
KSUX 032203Z 0322/0418 33025G32KT P6SM FEW023
     FM040000 34016G24KT P6SM SCT020 BKN150
     FM040400 32009KT P6SM SCT200=



000
FTUS43 KFSD 032203 AAA
TAFSUX
TAF AMD
KSUX 032203Z 0322/0418 33025G32KT P6SM FEW023
     FM040000 34016G24KT P6SM SCT020 BKN150
     FM040400 32009KT P6SM SCT200=



000
FTUS43 KFSD 032202 AAA
TAFFSD
TAF AMD
KFSD 032202Z 0322/0418 34023G32KT 5SM BLSN BKN018
     FM032330 32018G26KT P6SM SCT020 BKN150
     FM040100 31009KT P6SM SCT040 SCT200=



000
FTUS43 KFSD 031723
TAFFSD
TAF
KFSD 031723Z 0318/0418 34023G34KT 4SM BLSN BKN030
     FM032200 32018G26KT P6SM SCT020 BKN150
     FM040100 31009KT P6SM SCT040 SCT200=



000
FTUS43 KFSD 031723
TAFHON
TAF
KHON 031723Z 0318/0418 34024G35KT 6SM BLSN BKN035
     FM032100 32020G30KT P6SM SCT025 BKN100
     FM040000 30012KT P6SM SKC
     FM040500 29007KT P6SM SCT040
     FM041400 33012KT P6SM SKC=



000
FTUS43 KFSD 031723
TAFSUX
TAF
KSUX 031723Z 0318/0418 31018G30KT P6SM BKN030
     FM031900 33025G36KT P6SM BKN020
     FM040000 34016G24KT P6SM SCT020 BKN150
     FM040400 32009KT P6SM SCT200=



000
FTUS43 KFSD 031723
TAFHON
TAF
KHON 031723Z 0318/0418 34024G35KT 6SM BLSN BKN035
     FM032100 32020G30KT P6SM SCT025 BKN100
     FM040000 30012KT P6SM SKC
     FM040500 29007KT P6SM SCT040
     FM041400 33012KT P6SM SKC=



000
FTUS43 KFSD 031723
TAFFSD
TAF
KFSD 031723Z 0318/0418 34023G34KT 4SM BLSN BKN030
     FM032200 32018G26KT P6SM SCT020 BKN150
     FM040100 31009KT P6SM SCT040 SCT200=



000
FTUS43 KFSD 031723
TAFSUX
TAF
KSUX 031723Z 0318/0418 31018G30KT P6SM BKN030
     FM031900 33025G36KT P6SM BKN020
     FM040000 34016G24KT P6SM SCT020 BKN150
     FM040400 32009KT P6SM SCT200=



000
FTUS43 KFSD 031723
TAFSUX
TAF
KSUX 031723Z 0318/0418 31018G30KT P6SM BKN030
     FM031900 33025G36KT P6SM BKN020
     FM040000 34016G24KT P6SM SCT020 BKN150
     FM040400 32009KT P6SM SCT200=



000
FTUS43 KFSD 031723
TAFSUX
TAF
KSUX 031723Z 0318/0418 31018G30KT P6SM BKN030
     FM031900 33025G36KT P6SM BKN020
     FM040000 34016G24KT P6SM SCT020 BKN150
     FM040400 32009KT P6SM SCT200=



000
FTUS43 KFSD 031501 AAB
TAFFSD
TAF AMD
KFSD 031501Z 0315/0412 27008KT 5SM -SN OVC028
     FM031530 34023G34KT P6SM OVC015
      TEMPO 0316/0318 1SM BLSN
     FM032200 32018G26KT P6SM SCT020 BKN150
     FM040100 31009KT P6SM SCT200=



000
FTUS43 KFSD 031228 AAA
TAFFSD
TAF AMD
KFSD 031228Z 0312/0412 18006KT 3/4SM -SN OVC010
      TEMPO 0312/0313 1/4SM +SN VV007
     FM031330 24008KT 1 1/2SM -SN OVC012
      TEMPO 0315/0316 31013G18KT
     FM031600 34023G34KT P6SM OVC015
     FM032200 32018G26KT P6SM SCT020 BKN150
     FM040100 31009KT P6SM SCT200=



000
FTUS43 KFSD 031228 AAA
TAFFSD
TAF AMD
KFSD 031228Z 0312/0412 18006KT 3/4SM -SN OVC010
      TEMPO 0312/0313 1/4SM +SN VV007
     FM031330 24008KT 1 1/2SM -SN OVC012
      TEMPO 0315/0316 31013G18KT
     FM031600 34023G34KT P6SM OVC015
     FM032200 32018G26KT P6SM SCT020 BKN150
     FM040100 31009KT P6SM SCT200=



000
FTUS43 KFSD 031138
TAFSUX
TAF
KSUX 031138Z 0312/0412 14005KT P6SM -SN OVC012
      TEMPO 0312/0314 4SM -FZDZSN BR
     FM031400 26012KT 4SM -SN BR OVC015
     FM031700 31018G30KT P6SM OVC018
     FM031900 33025G36KT P6SM BKN020
     FM040000 34016G24KT P6SM SCT020 BKN150
     FM040400 32009KT P6SM SCT200=



000
FTUS43 KFSD 031138
TAFFSD
TAF
KFSD 031138Z 0312/0412 18006KT 1SM -SN OVC020
     FM031330 24008KT 1 1/2SM -SN OVC012
      TEMPO 0315/0316 31013G18KT
     FM031600 34023G34KT P6SM OVC015
     FM032200 32018G26KT P6SM SCT020 BKN150
     FM040100 31009KT P6SM SCT200=



000
FTUS43 KFSD 031138
TAFSUX
TAF
KSUX 031138Z 0312/0412 14005KT P6SM -SN OVC012
      TEMPO 0312/0314 4SM -FZDZSN BR
     FM031400 26012KT 4SM -SN BR OVC015
     FM031700 31018G30KT P6SM OVC018
     FM031900 33025G36KT P6SM BKN020
     FM040000 34016G24KT P6SM SCT020 BKN150
     FM040400 32009KT P6SM SCT200=



000
FTUS43 KFSD 031138
TAFHON
TAF
KHON 031138Z 0312/0412 36008KT 1/2SM SN OVC008
     FM031300 35028G38KT 3/4SM -SN BLSN OVC012
     FM031600 34025G36KT 3SM BLSN BKN020
     FM032100 32020G30KT P6SM SCT025 BKN100
     FM040000 30012KT P6SM SKC
     FM040500 29007KT P6SM SCT040=



000
FTUS43 KFSD 031138
TAFHON
TAF
KHON 031138Z 0312/0412 36008KT 1/2SM SN OVC008
     FM031300 35028G38KT 3/4SM -SN BLSN OVC012
     FM031600 34025G36KT 3SM BLSN BKN020
     FM032100 32020G30KT P6SM SCT025 BKN100
     FM040000 30012KT P6SM SKC
     FM040500 29007KT P6SM SCT040=



000
FTUS43 KFSD 031138
TAFFSD
TAF
KFSD 031138Z 0312/0412 18006KT 1SM -SN OVC020
     FM031330 24008KT 1 1/2SM -SN OVC012
      TEMPO 0315/0316 31013G18KT
     FM031600 34023G34KT P6SM OVC015
     FM032200 32018G26KT P6SM SCT020 BKN150
     FM040100 31009KT P6SM SCT200=



000
FTUS43 KFSD 031138
TAFSUX
TAF
KSUX 031138Z 0312/0412 14005KT P6SM -SN OVC012
      TEMPO 0312/0314 4SM -FZDZSN BR
     FM031400 26012KT 4SM -SN BR OVC015
     FM031700 31018G30KT P6SM OVC018
     FM031900 33025G36KT P6SM BKN020
     FM040000 34016G24KT P6SM SCT020 BKN150
     FM040400 32009KT P6SM SCT200=



000
FTUS43 KFSD 031040 AAB
TAFHON
TAF AMD
KHON 031040Z 0311/0406 16005KT 1SM -SN OVC025
     FM031300 35030G40KT 1/2SM -SN BLSN OVC009
     FM031700 34028G38KT 4SM BLSN BKN030
     FM032100 33020G30KT P6SM SCT035 BKN150
     FM040100 29008KT P6SM SKC=



000
FTUS43 KFSD 031040 AAB
TAFHON
TAF AMD
KHON 031040Z 0311/0406 16005KT 1SM -SN OVC025
     FM031300 35030G40KT 1/2SM -SN BLSN OVC009
     FM031700 34028G38KT 4SM BLSN BKN030
     FM032100 33020G30KT P6SM SCT035 BKN150
     FM040100 29008KT P6SM SKC=



000
FTUS43 KFSD 030915 AAA
TAFHON
TAF AMD
KHON 030915Z 0309/0406 15007KT 6SM -SN OVC060
     FM031100 16005KT 1SM -SN OVC009
     FM031300 35030G40KT 1/2SM -SN BLSN OVC009
     FM031700 34028G38KT 4SM BLSN BKN030
     FM032100 33020G30KT P6SM SCT035 BKN150
     FM040100 29008KT P6SM SKC=



000
FTUS43 KFSD 030754 AAA
TAFSUX
TAF AMD
KSUX 030754Z 0308/0406 14011KT P6SM OVC025
     FM031100 13006KT 2SM -FZDZSN OVC009
     FM031500 28012KT 4SM -SN BR OVC015
     FM031800 34025G35KT P6SM BKN030
     FM040000 34013G20KT P6SM BKN120=



000
FTUS43 KFSD 030754 AAA
TAFSUX
TAF AMD
KSUX 030754Z 0308/0406 14011KT P6SM OVC025
     FM031100 13006KT 2SM -FZDZSN OVC009
     FM031500 28012KT 4SM -SN BR OVC015
     FM031800 34025G35KT P6SM BKN030
     FM040000 34013G20KT P6SM BKN120=



000
FTUS43 KFSD 030754 AAA
TAFSUX
TAF AMD
KSUX 030754Z 0308/0406 14011KT P6SM OVC025
     FM031100 13006KT 2SM -FZDZSN OVC009
     FM031500 28012KT 4SM -SN BR OVC015
     FM031800 34025G35KT P6SM BKN030
     FM040000 34013G20KT P6SM BKN120=



000
FTUS43 KFSD 030754 AAA
TAFSUX
TAF AMD
KSUX 030754Z 0308/0406 14011KT P6SM OVC025
     FM031100 13006KT 2SM -FZDZSN OVC009
     FM031500 28012KT 4SM -SN BR OVC015
     FM031800 34025G35KT P6SM BKN030
     FM040000 34013G20KT P6SM BKN120=



000
FTUS43 KFSD 030522
TAFSUX
TAF
KSUX 030522Z 0306/0406 14013KT P6SM SCT050 OVC140
     FM030900 14011KT 3SM -FZDZSN OVC022
     FM031100 13006KT 2SM -FZDZSN OVC009
     FM031500 28012KT 4SM -SN BR OVC015
     FM031800 34025G35KT P6SM BKN030
     FM040000 34013G20KT P6SM BKN120=



000
FTUS43 KFSD 030522
TAFSUX
TAF
KSUX 030522Z 0306/0406 14013KT P6SM SCT050 OVC140
     FM030900 14011KT 3SM -FZDZSN OVC022
     FM031100 13006KT 2SM -FZDZSN OVC009
     FM031500 28012KT 4SM -SN BR OVC015
     FM031800 34025G35KT P6SM BKN030
     FM040000 34013G20KT P6SM BKN120=



000
FTUS43 KFSD 030522
TAFHON
TAF
KHON 030522Z 0306/0406 16012KT P6SM OVC100
     FM030900 15007KT 2SM -SN OVC040
     FM031100 16005KT 1SM -SN OVC009
     FM031300 35030G40KT 1/2SM -SN BLSN OVC009
     FM031700 34028G38KT 4SM BLSN BKN030
     FM032100 33020G30KT P6SM SCT035 BKN150
     FM040100 29008KT P6SM SKC=



000
FTUS43 KFSD 030522
TAFFSD
TAF
KFSD 030522Z 0306/0406 17012G17KT P6SM OVC100
     FM031030 17010KT 4SM -FZDZSN OVC015
     FM031200 18006KT 5SM BR OVC009
     FM031400 27013G18KT 1 1/2SM -SN OVC015
     FM031700 34028G38KT P6SM OVC025
     FM040000 31013KT P6SM BKN150=



000
FTUS43 KFSD 022330
TAFSUX
TAF
KSUX 022330Z 0300/0324 14013KT P6SM OVC060
     FM030500 14013KT P6SM OVC030
     FM030800 14011KT 3SM -FZDZSN OVC012
     FM031100 13006KT 2SM -FZDZSN OVC009
     FM031500 28012KT 3SM -SN BR OVC015
     FM031800 34025G35KT P6SM BKN030=



000
FTUS43 KFSD 022330
TAFSUX
TAF
KSUX 022330Z 0300/0324 14013KT P6SM OVC060
     FM030500 14013KT P6SM OVC030
     FM030800 14011KT 3SM -FZDZSN OVC012
     FM031100 13006KT 2SM -FZDZSN OVC009
     FM031500 28012KT 3SM -SN BR OVC015
     FM031800 34025G35KT P6SM BKN030=



000
FTUS43 KFSD 022330
TAFFSD
TAF
KFSD 022330Z 0300/0324 17012G17KT P6SM OVC060
     FM030800 17013KT 3SM -FZDZSN OVC015
     FM031200 18006KT 2SM -SN OVC009
     FM031500 28013G18KT 1 1/2SM -SN OVC015
     FM031700 34028G38KT 3/4SM -SN BLSN OVC020
     FM031900 34025G35KT P6SM BKN030=



000
FTUS43 KFSD 022330
TAFHON
TAF
KHON 022330Z 0300/0324 16012G18KT P6SM OVC060
     FM030600 16012KT 3SM -SN OVC030
     FM030800 16005KT 1SM -SN OVC015
     FM031300 35022G34KT 3/4SM -SN BLSN OVC009
     FM031500 35030G40KT 1/2SM -SN BLSN OVC015
     FM031800 34028G38KT 4SM BLSN BKN030=



000
FTUS43 KFSD 021733
TAFSUX
TAF
KSUX 021733Z 0218/0318 15015G22KT P6SM BKN090
     FM030700 15014G20KT P6SM OVC025
     FM030900 16012G18KT 4SM -FZDZ BR OVC012
     FM031200 17008KT 3SM -SN BR OVC012=



000
FTUS43 KFSD 021733
TAFHON
TAF
KHON 021733Z 0218/0318 16017G26KT P6SM BKN070
     FM030000 16012G19KT P6SM BKN100
     FM030600 16012KT 3SM -SN BKN030 OVC060
     FM030800 05008KT 1SM -SN OVC015
     FM031500 34022G34KT 3/4SM -SN BLSN OVC010=



000
FTUS43 KFSD 021733
TAFFSD
TAF
KFSD 021733Z 0218/0318 16013G18KT P6SM BKN120
     FM022100 17016G24KT P6SM SCT040 BKN080
     FM030400 17014G22KT P6SM SCT025 BKN040
     FM030700 17013KT P6SM OVC015
     FM031000 20008KT 3SM -SN OVC010
     FM031700 32020G33KT 3SM -SN BLSN OVC010=



000
FTUS43 KFSD 021733
TAFFSD
TAF
KFSD 021733Z 0218/0318 16013G18KT P6SM BKN120
     FM022100 17016G24KT P6SM SCT040 BKN080
     FM030400 17014G22KT P6SM SCT025 BKN040
     FM030700 17013KT P6SM OVC015
     FM031000 20008KT 3SM -SN OVC010
     FM031700 32020G33KT 3SM -SN BLSN OVC010=



000
FTUS43 KFSD 021733
TAFSUX
TAF
KSUX 021733Z 0218/0318 15015G22KT P6SM BKN090
     FM030700 15014G20KT P6SM OVC025
     FM030900 16012G18KT 4SM -FZDZ BR OVC012
     FM031200 17008KT 3SM -SN BR OVC012=



000
FTUS43 KFSD 021733
TAFHON
TAF
KHON 021733Z 0218/0318 16017G26KT P6SM BKN070
     FM030000 16012G19KT P6SM BKN100
     FM030600 16012KT 3SM -SN BKN030 OVC060
     FM030800 05008KT 1SM -SN OVC015
     FM031500 34022G34KT 3/4SM -SN BLSN OVC010=



000
FTUS43 KFSD 021733
TAFSUX
TAF
KSUX 021733Z 0218/0318 15015G22KT P6SM BKN090
     FM030700 15014G20KT P6SM OVC025
     FM030900 16012G18KT 4SM -FZDZ BR OVC012
     FM031200 17008KT 3SM -SN BR OVC012=



000
FTUS43 KFSD 021733
TAFSUX
TAF
KSUX 021733Z 0218/0318 15015G22KT P6SM BKN090
     FM030700 15014G20KT P6SM OVC025
     FM030900 16012G18KT 4SM -FZDZ BR OVC012
     FM031200 17008KT 3SM -SN BR OVC012=



000
FTUS43 KFSD 021139
TAFHON
TAF
KHON 021139Z 0212/0312 16007KT P6SM SCT250
     FM021600 15013G18KT P6SM BKN150
     FM021900 16017G26KT P6SM BKN070
     FM030000 16012G19KT P6SM BKN100
     FM030600 16012KT 3SM -SN BKN030 OVC060
     FM030800 05008KT 1SM -SN OVC015=



000
FTUS43 KFSD 021139
TAFSUX
TAF
KSUX 021139Z 0212/0312 11003KT P6SM BKN200
     FM021600 13009KT P6SM BKN110
     FM021900 15015G22KT P6SM BKN090
     FM030400 15014G20KT 6SM BR OVC025
     FM030700 16012G18KT 4SM -FZDZ BR OVC012
     FM031000 17008KT 3SM -FZDZSN BR OVC008=



000
FTUS43 KFSD 021139
TAFSUX
TAF
KSUX 021139Z 0212/0312 11003KT P6SM BKN200
     FM021600 13009KT P6SM BKN110
     FM021900 15015G22KT P6SM BKN090
     FM030400 15014G20KT 6SM BR OVC025
     FM030700 16012G18KT 4SM -FZDZ BR OVC012
     FM031000 17008KT 3SM -FZDZSN BR OVC008=



000
FTUS43 KFSD 021139
TAFFSD
TAF
KFSD 021139Z 0212/0312 VRB03KT P6SM SCT250
     FM021500 15008KT P6SM BKN200
     FM021800 16013G18KT P6SM BKN120
     FM022100 17016G24KT P6SM SCT040 BKN080
     FM030400 17014G22KT P6SM SCT025 BKN040
     FM030700 17013KT 3SM -SN OVC015
     FM031000 20008KT 2SM -SN OVC012=



000
FTUS43 KFSD 021139
TAFFSD
TAF
KFSD 021139Z 0212/0312 VRB03KT P6SM SCT250
     FM021500 15008KT P6SM BKN200
     FM021800 16013G18KT P6SM BKN120
     FM022100 17016G24KT P6SM SCT040 BKN080
     FM030400 17014G22KT P6SM SCT025 BKN040
     FM030700 17013KT 3SM -SN OVC015
     FM031000 20008KT 2SM -SN OVC012=



000
FTUS43 KFSD 021139
TAFHON
TAF
KHON 021139Z 0212/0312 16007KT P6SM SCT250
     FM021600 15013G18KT P6SM BKN150
     FM021900 16017G26KT P6SM BKN070
     FM030000 16012G19KT P6SM BKN100
     FM030600 16012KT 3SM -SN BKN030 OVC060
     FM030800 05008KT 1SM -SN OVC015=



000
FTUS43 KFSD 021139
TAFSUX
TAF
KSUX 021139Z 0212/0312 11003KT P6SM BKN200
     FM021600 13009KT P6SM BKN110
     FM021900 15015G22KT P6SM BKN090
     FM030400 15014G20KT 6SM BR OVC025
     FM030700 16012G18KT 4SM -FZDZ BR OVC012
     FM031000 17008KT 3SM -FZDZSN BR OVC008=



000
FTUS43 KFSD 021139
TAFSUX
TAF
KSUX 021139Z 0212/0312 11003KT P6SM BKN200
     FM021600 13009KT P6SM BKN110
     FM021900 15015G22KT P6SM BKN090
     FM030400 15014G20KT 6SM BR OVC025
     FM030700 16012G18KT 4SM -FZDZ BR OVC012
     FM031000 17008KT 3SM -FZDZSN BR OVC008=



000
FTUS43 KFSD 020534
TAFFSD
TAF
KFSD 020534Z 0206/0306 VRB03KT P6SM SCT200
     FM021100 17005KT P6SM BKN200
     FM021700 16013G18KT P6SM BKN110
     FM022200 17016G24KT P6SM BKN080
     FM030300 17013G19KT 6SM BR OVC015=



000
FTUS43 KFSD 020534
TAFFSD
TAF
KFSD 020534Z 0206/0306 VRB03KT P6SM SCT200
     FM021100 17005KT P6SM BKN200
     FM021700 16013G18KT P6SM BKN110
     FM022200 17016G24KT P6SM BKN080
     FM030300 17013G19KT 6SM BR OVC015=



000
FTUS43 KFSD 020534
TAFSUX
TAF
KSUX 020534Z 0206/0306 VRB03KT P6SM SCT200
     FM021500 13009KT P6SM BKN140
     FM021800 16013G19KT P6SM BKN090
     FM030100 15013KT 6SM BR OVC015=



000
FTUS43 KFSD 020534
TAFHON
TAF
KHON 020534Z 0206/0306 17005KT P6SM SKC
     FM021500 15013G18KT P6SM BKN200
     FM021800 16017G26KT P6SM BKN110
     FM030000 16012G19KT P6SM BKN045=



000
FTUS43 KFSD 020534
TAFSUX
TAF
KSUX 020534Z 0206/0306 VRB03KT P6SM SCT200
     FM021500 13009KT P6SM BKN140
     FM021800 16013G19KT P6SM BKN090
     FM030100 15013KT 6SM BR OVC015=



000
FTUS43 KFSD 020534
TAFSUX
TAF
KSUX 020534Z 0206/0306 VRB03KT P6SM SCT200
     FM021500 13009KT P6SM BKN140
     FM021800 16013G19KT P6SM BKN090
     FM030100 15013KT 6SM BR OVC015=



000
FTUS43 KFSD 020534
TAFHON
TAF
KHON 020534Z 0206/0306 17005KT P6SM SKC
     FM021500 15013G18KT P6SM BKN200
     FM021800 16017G26KT P6SM BKN110
     FM030000 16012G19KT P6SM BKN045=



000
FTUS43 KFSD 020534
TAFSUX
TAF
KSUX 020534Z 0206/0306 VRB03KT P6SM SCT200
     FM021500 13009KT P6SM BKN140
     FM021800 16013G19KT P6SM BKN090
     FM030100 15013KT 6SM BR OVC015=



000
FTUS43 KFSD 012331
TAFSUX
TAF
KSUX 012331Z 0200/0224 30007KT P6SM SCT060
     FM020300 VRB03KT P6SM SKC
     FM021500 13010KT P6SM BKN140
     FM021800 16013G19KT P6SM BKN080=



000
FTUS43 KFSD 012331
TAFFSD
TAF
KFSD 012331Z 0200/0224 32010KT P6SM SCT050
     FM020300 32005KT P6SM SKC
     FM021100 15005KT P6SM BKN150
     FM021700 16013G18KT P6SM OVC100
     FM022200 17016G24KT P6SM OVC045=



000
FTUS43 KFSD 012331
TAFHON
TAF
KHON 012331Z 0200/0224 31010KT P6SM SCT050
     FM020300 VRB04KT P6SM SKC
     FM021000 15007KT P6SM SCT200
     FM021500 15013G18KT P6SM SCT100 BKN200
     FM021800 16017G26KT P6SM SCT035 OVC100=



000
FTUS43 KFSD 012331
TAFSUX
TAF
KSUX 012331Z 0200/0224 30007KT P6SM SCT060
     FM020300 VRB03KT P6SM SKC
     FM021500 13010KT P6SM BKN140
     FM021800 16013G19KT P6SM BKN080=



000
FTUS43 KFSD 012156 AAA
TAFHON
TAF AMD
KHON 012156Z 0122/0218 30013G19KT P6SM BKN050
     FM020000 31007KT P6SM SCT060
     FM020300 VRB04KT P6SM SKC
     FM021000 15007KT P6SM SCT120
     FM021500 15014G23KT P6SM BKN090=



000
FTUS43 KFSD 012156 AAA
TAFHON
TAF AMD
KHON 012156Z 0122/0218 30013G19KT P6SM BKN050
     FM020000 31007KT P6SM SCT060
     FM020300 VRB04KT P6SM SKC
     FM021000 15007KT P6SM SCT120
     FM021500 15014G23KT P6SM BKN090=



000
FTUS43 KFSD 012155 AAA
TAFFSD
TAF AMD
KFSD 012155Z 0122/0218 30012G18KT P6SM BKN060
     FM020000 32007KT P6SM SCT070
     FM020500 VRB04KT P6SM SKC
     FM021500 15011KT P6SM BKN090=



000
FTUS43 KFSD 012155 AAA
TAFFSD
TAF AMD
KFSD 012155Z 0122/0218 30012G18KT P6SM BKN060
     FM020000 32007KT P6SM SCT070
     FM020500 VRB04KT P6SM SKC
     FM021500 15011KT P6SM BKN090=



000
FTUS43 KFSD 011738
TAFSUX
TAF
KSUX 011738Z 0118/0218 30009KT P6SM SCT070
     FM020100 32006KT P6SM SKC
     FM020500 VRB03KT P6SM SKC
     FM021500 15010KT P6SM OVC090=



000
FTUS43 KFSD 011738
TAFFSD
TAF
KFSD 011738Z 0118/0218 28012G18KT P6SM FEW040
     FM020000 32007KT P6SM SKC
     FM020500 VRB04KT P6SM SKC
     FM021500 15011KT P6SM BKN090=



000
FTUS43 KFSD 011738
TAFHON
TAF
KHON 011738Z 0118/0218 29013G19KT P6SM SCT040
     FM020000 31007KT P6SM SKC
     FM020300 VRB04KT P6SM SKC
     FM021000 15007KT P6SM SCT120
     FM021500 15014G23KT P6SM BKN090=



000
FTUS43 KFSD 011738
TAFSUX
TAF
KSUX 011738Z 0118/0218 30009KT P6SM SCT070
     FM020100 32006KT P6SM SKC
     FM020500 VRB03KT P6SM SKC
     FM021500 15010KT P6SM OVC090=



000
FTUS43 KFSD 011120
TAFFSD
TAF
KFSD 011120Z 0112/0212 28004KT P6SM BKN120
     FM011800 28012KT P6SM SKC
     FM020000 32007KT P6SM SKC
     FM020600 VRB04KT P6SM SKC=



000
FTUS43 KFSD 011120
TAFSUX
TAF
KSUX 011120Z 0112/0212 27005KT P6SM BKN120
     FM011700 30009KT P6SM SCT080
     FM020100 32006KT P6SM SKC
     FM020600 VRB04KT P6SM SKC=



000
FTUS43 KFSD 011120
TAFSUX
TAF
KSUX 011120Z 0112/0212 27005KT P6SM BKN120
     FM011700 30009KT P6SM SCT080
     FM020100 32006KT P6SM SKC
     FM020600 VRB04KT P6SM SKC=



000
FTUS43 KFSD 011120
TAFHON
TAF
KHON 011120Z 0112/0212 26006KT P6SM BKN150
     FM011700 29013G19KT P6SM SCT080
     FM020000 31007KT P6SM SKC
     FM020400 VRB04KT P6SM SKC=



000
FTUS43 KFSD 010520
TAFSUX
TAF
KSUX 010520Z 0106/0206 17007KT P6SM SCT200
     FM011100 30006KT P6SM OVC120
     FM011700 31009KT P6SM BKN070
     FM012300 27005KT P6SM SKC=



000
FTUS43 KFSD 010520
TAFHON
TAF
KHON 010520Z 0106/0206 31008KT P6SM SCT120
     FM010900 21003KT P6SM BKN140
     FM011700 28012KT P6SM SCT080
     FM020000 31005KT P6SM SKC=



000
FTUS43 KFSD 010520
TAFSUX
TAF
KSUX 010520Z 0106/0206 17007KT P6SM SCT200
     FM011100 30006KT P6SM OVC120
     FM011700 31009KT P6SM BKN070
     FM012300 27005KT P6SM SKC=



000
FTUS43 KFSD 010520
TAFFSD
TAF
KFSD 010520Z 0106/0206 19007KT P6SM SKC
     FM010900 28004KT P6SM SCT150
     FM011200 25004KT P6SM BKN120
     FM011800 28012KT P6SM SCT030
     FM020000 32005KT P6SM SKC=



000
FTUS43 KFSD 010520
TAFHON
TAF
KHON 010520Z 0106/0206 31008KT P6SM SCT120
     FM010900 21003KT P6SM BKN140
     FM011700 28012KT P6SM SCT080
     FM020000 31005KT P6SM SKC=



000
FTUS43 KFSD 010520
TAFFSD
TAF
KFSD 010520Z 0106/0206 19007KT P6SM SKC
     FM010900 28004KT P6SM SCT150
     FM011200 25004KT P6SM BKN120
     FM011800 28012KT P6SM SCT030
     FM020000 32005KT P6SM SKC=



000
FTUS43 KFSD 010520
TAFSUX
TAF
KSUX 010520Z 0106/0206 17007KT P6SM SCT200
     FM011100 30006KT P6SM OVC120
     FM011700 31009KT P6SM BKN070
     FM012300 27005KT P6SM SKC=



000
FTUS43 KFSD 010520
TAFSUX
TAF
KSUX 010520Z 0106/0206 17007KT P6SM SCT200
     FM011100 30006KT P6SM OVC120
     FM011700 31009KT P6SM BKN070
     FM012300 27005KT P6SM SKC=



    US Dept of Commerce
    National Oceanic and Atmospheric Administration
    National Weather Service
    1325 East West Highway
    Silver Spring, MD 20910
    Page Author: NWS Internet Services Team
Disclaimer
Information Quality
Credits
Glossary
Privacy Policy
Freedom of Information Act (FOIA)
About Us
Career Opportunities